KELY/ELY METAR and TAF weather

Enter ICAO airport designator
Station Type Date Time Source
KELY METAR 2018/07/16 23:53 UTC NOAA

KELY 162353Z AUTO 25008KT 10SM CLR 32/05 A3017 RMK AO2 SLP103 60000 T03220050 10328 20283 58010


Station Type Date Time Source
KELY Decoded METAR 2018/07/16 23:53 UTC NOAA

ELY AIRPORT (YELLAND FIELD), NV, United States (KELY) 39-18N 114-51W 1906M
Jul 16, 2018 - 07:53 PM EDT / 2018.07.16 2353 UTC
Wind: from the WSW (250 degrees) at 9 MPH (8 KT):0
Visibility: 10 mile(s):0
Sky conditions: clear
Temperature: 90.0 F (32.2 C)
Dew Point: 41.0 F (5.0 C)
Relative Humidity: 18%
Pressure (altimeter): 30.17 in. Hg (1021 hPa)
Pressure tendency: 0.03 inches (1.0 hPa) lower than three hours ago
ob: KELY 162353Z AUTO 25008KT 10SM CLR 32/05 A3017 RMK AO2 SLP103 60000 T03220050 10328 20283 58010
cycle: 0

Station Type Date Time Source
KELY TAF 2018/07/16 18:36 UTC NOAA

TAF KELY 161735Z 1618/1718 VRB06KT P6SM BKN120
FM161900 24010G20KT P6SM VCTS BKN090CB
FM170500 19009KT P6SM VCSH BKN090


Example: see airport list